Time;durP1;ratioP1;P1;durP2;ratioP2;P2;SDS_P1;SDS_P2;PMS_P1;PMS_P2;Temp;Humidity;BMP_temperature;BMP_pressure;BME280_temperature;BME280_humidity;BME280_pressure;Samples;Min_cycle;Max_cycle;Signal;HPM_P1;HPM_P2
2022/04/21 00:00:19;;;;;;;15.52;9.38;;;;;;;7.58;80.18;101422.53;1041032;28;20284;-77
2022/04/21 00:00:50;;;;;;;11.20;8.90;;;;;;;7.60;80.44;101417.88;1044276;28;20299;-77
2022/04/21 00:01:22;;;;;;;12.98;8.60;;;;;;;7.75;80.14;101421.38;1043432;28;20300;-78
2022/04/21 00:01:54;;;;;;;15.65;9.25;;;;;;;7.74;79.82;101425.03;1040130;28;20699;-78
2022/04/21 00:02:26;;;;;;;11.32;9.18;;;;;;;7.68;79.63;101425.75;1040731;28;20292;-77
2022/04/21 00:02:57;;;;;;;12.20;8.98;;;;;;;7.78;79.77;101414.06;1044059;28;20352;-77
2022/04/21 00:03:29;;;;;;;13.18;9.05;;;;;;;7.79;79.66;101431.59;1039861;28;20357;-76
2022/04/21 00:04:01;;;;;;;11.50;8.70;;;;;;;7.75;79.91;101417.91;1040321;28;20837;-78
2022/04/21 00:04:32;;;;;;;9.98;8.90;;;;;;;7.71;79.92;101413.97;1040184;28;20446;-78
2022/04/21 00:05:05;;;;;;;11.07;8.35;;;;;;;7.76;79.77;101419.53;1036693;28;20340;-77
2022/04/21 00:05:37;;;;;;;9.93;8.90;;;;;;;7.82;79.42;101415.31;1040213;28;20304;-77
2022/04/21 00:06:08;;;;;;;12.23;9.20;;;;;;;7.80;79.52;101412.84;1036058;28;20296;-77
2022/04/21 00:06:40;;;;;;;13.02;8.13;;;;;;;7.80;79.63;101415.50;1037375;28;20300;-78
2022/04/21 00:07:12;;;;;;;10.10;8.32;;;;;;;7.73;79.57;101417.25;1040275;28;20307;-77
2022/04/21 00:07:45;;;;;;;10.85;8.93;;;;;;;7.64;79.49;101413.84;1036545;28;20303;-78
2022/04/21 00:08:20;;;;;;;10.52;8.48;;;;;;;7.66;79.90;101425.09;1040200;28;20284;-77
2022/04/21 00:08:51;;;;;;;15.27;9.23;;;;;;;7.63;79.82;101422.81;1037242;28;20657;-77
2022/04/21 00:09:23;;;;;;;13.15;8.57;;;;;;;7.58;80.41;101417.25;1041281;28;20308;-77
2022/04/21 00:09:54;;;;;;;13.20;8.65;;;;;;;7.73;80.26;101426.03;1044425;28;20820;-77
2022/04/21 00:10:27;;;;;;;10.52;8.05;;;;;;;7.70;80.13;101417.63;1044246;28;20295;-77
2022/04/21 00:10:58;;;;;;;11.15;9.50;;;;;;;7.70;80.02;101415.78;1044445;28;20306;-77
2022/04/21 00:11:30;;;;;;;11.93;9.10;;;;;;;7.66;79.95;101421.63;1044258;28;20292;-77
2022/04/21 00:12:03;;;;;;;11.57;8.32;;;;;;;7.62;80.13;101415.03;1040006;28;20307;-77
2022/04/21 00:12:35;;;;;;;16.52;9.32;;;;;;;7.53;79.92;101421.44;1040149;28;20300;-77
2022/04/21 00:13:07;;;;;;;11.90;9.18;;;;;;;7.51;80.45;101413.69;1040121;28;20307;-77
2022/04/21 00:13:38;;;;;;;16.13;9.05;;;;;;;7.54;80.69;101413.31;1036618;28;20823;-77
2022/04/21 00:14:10;;;;;;;10.80;8.85;;;;;;;7.57;80.35;101420.91;1040373;28;20295;-77
2022/04/21 00:14:42;;;;;;;11.63;9.00;;;;;;;7.57;80.79;101412.94;1044411;28;20295;-77
2022/04/21 00:15:14;;;;;;;11.38;9.43;;;;;;;7.57;80.72;101417.44;1040561;28;20298;-77
2022/04/21 00:15:45;;;;;;;11.00;9.43;;;;;;;7.57;80.87;101415.59;1044252;28;20302;-76
2022/04/21 00:16:17;;;;;;;11.43;8.50;;;;;;;7.53;80.51;101422.28;1040184;28;20798;-77
2022/04/21 00:16:49;;;;;;;10.38;8.90;;;;;;;7.62;80.91;101415.03;1039809;28;20855;-78
2022/04/21 00:17:21;;;;;;;9.95;8.57;;;;;;;7.57;80.86;101412.94;1036322;28;20300;-77
2022/04/21 00:17:53;;;;;;;9.45;8.40;;;;;;;7.56;81.00;101413.94;1040842;28;20650;-77
2022/04/21 00:18:24;;;;;;;14.60;8.10;;;;;;;7.66;80.71;101417.16;1044065;28;20730;-77
2022/04/21 00:18:56;;;;;;;13.27;10.05;;;;;;;7.62;80.86;101412.41;1043958;28;20605;-77
2022/04/21 00:19:27;;;;;;;10.77;9.23;;;;;;;7.59;80.62;101410.94;1044365;28;20655;-77
2022/04/21 00:20:00;;;;;;;9.27;8.40;;;;;;;7.61;80.79;101418.69;1043977;28;20665;-76
2022/04/21 00:20:31;;;;;;;9.13;8.25;;;;;;;7.57;80.75;101409.47;1044479;28;20299;-78
2022/04/21 00:21:03;;;;;;;10.93;8.93;;;;;;;7.53;81.17;101416.97;1044614;28;20393;-77
2022/04/21 00:23:28;;;;;;;9.63;8.63;;;;;;;7.50;81.32;101405.91;1044430;28;20496;-78
2022/04/21 00:24:00;;;;;;;10.07;8.13;;;;;;;7.59;80.76;101410.94;1044559;28;20049;-77
2022/04/21 00:24:32;;;;;;;10.38;8.98;;;;;;;7.57;80.81;101412.13;1044645;28;20287;-77
2022/04/21 00:25:04;;;;;;;11.13;8.13;;;;;;;7.55;80.79;101403.53;1044275;28;20298;-78
2022/04/21 00:25:37;;;;;;;9.68;8.25;;;;;;;7.59;80.85;101407.47;1044448;28;20309;-77
2022/04/21 00:26:09;;;;;;;10.93;8.68;;;;;;;7.61;80.82;101406.28;1044316;28;20326;-77
2022/04/21 00:26:40;;;;;;;9.73;8.57;;;;;;;7.60;80.71;101401.97;1044246;28;20724;-77
2022/04/21 00:27:12;;;;;;;10.55;9.20;;;;;;;7.72;80.62;101405.84;1043964;28;20295;-77
2022/04/21 00:27:45;;;;;;;12.30;8.80;;;;;;;7.68;80.46;101403.72;1044389;28;20314;-78
2022/04/21 00:28:17;;;;;;;12.48;9.32;;;;;;;7.61;80.32;101408.09;1044339;28;20299;-78
2022/04/21 00:28:48;;;;;;;12.38;8.77;;;;;;;7.57;80.95;101409.47;1040253;28;20387;-77
2022/04/21 00:29:20;;;;;;;9.75;8.73;;;;;;;7.58;80.62;101403.97;1040283;28;20292;-78
2022/04/21 00:29:51;;;;;;;9.82;8.75;;;;;;;7.58;80.67;101409.28;1040441;28;20299;-77
2022/04/21 00:30:23;;;;;;;11.25;9.50;;;;;;;7.61;81.04;101402.78;1040600;28;20667;-77
2022/04/21 00:30:56;;;;;;;9.77;8.75;;;;;;;7.58;80.57;101403.16;1044289;28;20338;-77
2022/04/21 00:31:28;;;;;;;10.63;8.48;;;;;;;7.58;81.05;101401.34;1044100;28;20307;-77
2022/04/21 00:31:59;;;;;;;9.98;8.45;;;;;;;7.60;80.72;101401.97;1040748;28;20300;-78
2022/04/21 00:32:31;;;;;;;11.10;10.00;;;;;;;7.60;80.92;101406.44;1044343;28;20440;-77
2022/04/21 00:33:03;;;;;;;11.60;9.43;;;;;;;7.60;80.70;101406.44;1044380;28;20298;-77
2022/04/21 00:33:34;;;;;;;19.90;11.60;;;;;;;7.60;80.73;101399.31;1040818;28;20921;-78
2022/04/21 00:34:06;;;;;;;10.05;9.05;;;;;;;7.58;81.24;101401.34;1044177;28;20404;-77
2022/04/21 00:34:38;;;;;;;12.65;10.50;;;;;;;7.62;81.35;101402.59;1040180;28;20295;-77
2022/04/21 00:35:13;;;;;;;10.85;9.75;;;;;;;7.58;80.99;101393.38;1036721;28;20303;-77
2022/04/21 00:35:45;;;;;;;11.55;9.43;;;;;;;7.61;81.21;101397.50;1036148;28;20296;-78
2022/04/21 00:36:17;;;;;;;10.43;9.23;;;;;;;7.54;80.79;101405.34;1028974;28;20305;-78
2022/04/21 00:36:49;;;;;;;11.68;9.20;;;;;;;7.57;81.21;101399.69;1032922;28;20293;-78
2022/04/21 00:37:20;;;;;;;20.63;10.43;;;;;;;7.57;81.04;101401.53;1036133;28;20656;-78
2022/04/21 00:38:01;;;;;;;11.95;10.02;;;;;;;7.47;81.13;101407.09;1037068;28;20296;-78
2022/04/21 00:38:33;;;;;;;12.57;9.25;;;;;;;7.62;81.10;101399.13;1040598;28;20304;-78
2022/04/21 00:39:04;;;;;;;10.40;9.20;;;;;;;7.57;81.35;101402.34;1044031;28;20491;-77
2022/04/21 00:39:36;;;;;;;9.88;8.85;;;;;;;7.56;80.85;101395.41;1044505;28;20384;-77
2022/04/21 00:40:08;;;;;;;10.85;9.07;;;;;;;7.56;81.13;101400.69;1044699;28;20327;-77
2022/04/21 00:40:40;;;;;;;10.30;9.27;;;;;;;7.48;81.47;101392.84;1044592;28;20780;-78
2022/04/21 00:41:12;;;;;;;10.90;9.60;;;;;;;7.48;81.20;101397.31;1044349;28;20808;-77
2022/04/21 00:41:43;;;;;;;12.48;9.82;;;;;;;7.48;81.27;101400.78;1044330;28;20291;-77
2022/04/21 00:42:15;;;;;;;10.82;9.63;;;;;;;7.52;81.06;101394.13;1040289;28;20343;-78
2022/04/21 00:42:47;;;;;;;12.57;9.45;;;;;;;7.43;81.25;101400.53;1040682;28;20295;-78
2022/04/21 00:43:21;;;;;;;11.48;9.30;;;;;;;7.50;81.75;101398.78;1044325;28;20795;-77
2022/04/21 00:43:53;;;;;;;10.82;9.63;;;;;;;7.44;81.33;101399.50;1040028;28;20300;-77
2022/04/21 00:44:25;;;;;;;12.98;9.98;;;;;;;7.45;81.44;101395.84;1041129;28;20422;-77
2022/04/21 00:44:57;;;;;;;10.52;9.32;;;;;;;7.39;81.79;101393.91;1040219;28;20319;-77
2022/04/21 00:45:29;;;;;;;13.75;9.57;;;;;;;7.42;81.75;101396.22;1036795;28;20307;-77
2022/04/21 00:46:15;;;;;;;14.90;10.32;;;;;;;7.40;81.65;101391.09;1037130;28;20307;-77
2022/04/21 00:46:47;;;;;;;13.02;9.48;;;;;;;7.45;81.79;101390.56;1040000;28;20951;-77
2022/04/21 00:47:20;;;;;;;12.35;9.73;;;;;;;7.45;81.74;101387.91;1040008;28;20393;-78
2022/04/21 00:47:53;;;;;;;11.30;8.93;;;;;;;7.46;81.59;101384.25;1042733;28;20295;-77
2022/04/21 00:48:24;;;;;;;11.95;10.18;;;;;;;7.40;81.61;101390.28;1044093;28;20342;-77
2022/04/21 00:48:56;;;;;;;11.55;9.57;;;;;;;7.43;81.65;101385.44;1044132;28;20449;-77
2022/04/21 00:49:29;;;;;;;13.35;8.73;;;;;;;7.43;81.56;101390.75;1040062;28;20787;-77
2022/04/21 00:50:01;;;;;;;10.27;9.18;;;;;;;7.47;81.84;101387.72;1035923;28;20308;-78
2022/04/21 00:50:39;;;;;;;15.77;9.45;;;;;;;7.41;81.97;101392.75;1032756;28;20384;-77
2022/04/21 00:51:11;;;;;;;13.35;9.70;;;;;;;7.40;81.61;101385.00;1032068;28;20369;-77
2022/04/21 00:51:43;;;;;;;10.80;8.70;;;;;;;7.37;81.56;101382.66;1035777;28;20423;-78
2022/04/21 00:52:15;;;;;;;10.60;8.80;;;;;;;7.37;81.48;101387.97;1033469;28;20308;-78
2022/04/21 00:52:47;;;;;;;11.00;9.68;;;;;;;7.34;81.92;101386.50;1038907;28;20362;-77
2022/04/21 00:53:19;;;;;;;10.07;9.00;;;;;;;7.36;81.95;101386.31;1038194;28;20288;-77
2022/04/21 00:53:51;;;;;;;11.55;9.60;;;;;;;7.38;82.09;101382.50;1040822;28;20299;-77
2022/04/21 00:54:23;;;;;;;9.90;8.90;;;;;;;7.39;81.98;101383.31;1039989;28;20419;-77
2022/04/21 00:54:54;;;;;;;12.77;9.35;;;;;;;7.45;81.87;101387.91;1040586;28;20311;-77
2022/04/21 00:55:26;;;;;;;14.88;9.45;;;;;;;7.52;81.50;101378.22;1043931;28;20287;-77
2022/04/21 00:55:58;;;;;;;13.00;10.10;;;;;;;7.38;82.07;101384.31;1036259;28;20336;-78
2022/04/21 00:56:30;;;;;;;8.73;7.85;;;;;;;7.39;82.02;101383.31;1035806;28;20903;-77
2022/04/21 00:57:04;;;;;;;16.63;9.65;;;;;;;7.40;81.77;101385.00;1035906;28;20296;-77
2022/04/21 00:57:37;;;;;;;12.68;9.13;;;;;;;7.41;81.84;101386.63;1033612;28;20304;-78
2022/04/21 00:58:09;;;;;;;12.65;8.98;;;;;;;7.40;81.94;101382.34;1037046;28;20392;-77
2022/04/21 00:58:41;;;;;;;10.85;9.13;;;;;;;7.28;81.90;101383.78;1040130;28;20781;-77
2022/04/21 00:59:13;;;;;;;9.85;7.85;;;;;;;7.32;81.78;101382.41;1036797;28;20367;-77
2022/04/21 00:59:46;;;;;;;11.48;8.77;;;;;;;7.34;82.02;101385.69;1036588;28;20297;-77
2022/04/21 01:00:18;;;;;;;13.75;8.25;;;;;;;7.30;82.02;101381.75;1040045;28;20307;-77
2022/04/21 01:00:50;;;;;;;12.23;10.13;;;;;;;7.36;81.83;101383.69;1040138;28;20378;-77
2022/04/21 01:03:06;;;;;;;9.20;8.30;;;;;;;7.24;82.35;101385.13;1037619;28;20313;-77
2022/04/21 01:03:37;;;;;;;8.93;8.13;;;;;;;7.30;81.97;101379.09;1039810;28;20045;-77
2022/04/21 01:04:10;;;;;;;9.30;8.32;;;;;;;7.19;82.52;101388.34;1039833;28;20296;-78
2022/04/21 01:04:42;;;;;;;13.23;8.75;;;;;;;7.13;82.54;101381.94;1040428;28;20299;-77
2022/04/21 01:05:30;;;;;;;12.98;9.23;;;;;;;7.12;82.86;101388.25;1039938;28;20386;-77
2022/04/21 01:06:03;;;;;;;10.63;9.05;;;;;;;7.13;82.82;101389.88;1034840;28;20400;-76
2022/04/21 01:06:35;;;;;;;11.95;9.05;;;;;;;7.22;82.48;101382.66;1039053;28;20411;-77
2022/04/21 01:07:10;;;;;;;11.73;9.93;;;;;;;7.15;82.63;101387.06;1040382;28;20916;-76
2022/04/21 01:07:42;;;;;;;9.40;8.50;;;;;;;7.13;82.99;101379.28;1037571;28;20339;-76
2022/04/21 01:08:13;;;;;;;12.85;9.32;;;;;;;7.15;83.37;101386.22;1035875;28;20300;-76
2022/04/21 01:08:46;;;;;;;10.50;9.27;;;;;;;7.06;82.97;101377.50;1027841;28;20409;-76
2022/04/21 01:09:18;;;;;;;13.77;9.32;;;;;;;7.11;83.03;101385.75;1029742;28;20298;-77
2022/04/21 01:09:54;;;;;;;9.73;8.73;;;;;;;7.13;83.21;101389.88;1036653;28;20363;-77
2022/04/21 01:10:27;;;;;;;10.02;9.02;;;;;;;7.17;83.00;101384.22;1041189;28;20296;-77
2022/04/21 01:11:03;;;;;;;14.32;9.73;;;;;;;7.05;83.12;101379.34;1044668;28;20280;-77
2022/04/21 01:11:35;;;;;;;11.63;9.40;;;;;;;7.04;82.99;101388.28;1042558;28;20299;-77
2022/04/21 01:12:09;;;;;;;15.02;8.52;;;;;;;6.99;83.15;101387.19;1043920;28;20357;-77
2022/04/21 01:12:43;;;;;;;12.15;9.50;;;;;;;6.95;83.38;101386.72;1039786;28;20299;-77
2022/04/21 01:13:16;;;;;;;11.45;9.50;;;;;;;7.05;83.17;101384.63;1039995;28;20299;-77
2022/04/21 01:13:48;;;;;;;12.55;9.27;;;;;;;7.10;83.15;101389.41;1037374;28;20797;-77
2022/04/21 01:14:20;;;;;;;9.60;8.63;;;;;;;7.11;83.09;101378.63;1037060;28;20301;-77
2022/04/21 01:14:52;;;;;;;12.85;9.57;;;;;;;7.10;83.18;101384.91;1043475;28;20295;-77
2022/04/21 01:15:24;;;;;;;19.80;8.88;;;;;;;7.09;82.96;101385.91;1043950;28;20361;-76
2022/04/21 01:15:55;;;;;;;10.27;8.50;;;;;;;7.00;82.83;101386.19;1044605;28;20290;-77
2022/04/21 01:16:27;;;;;;;15.75;8.80;;;;;;;7.03;83.02;101385.81;1044193;28;20307;-77
2022/04/21 01:17:00;;;;;;;9.85;8.85;;;;;;;6.93;83.41;101388.75;1044242;28;20302;-77
2022/04/21 01:17:33;;;;;;;10.80;9.00;;;;;;;6.94;83.04;101384.25;1044483;28;20306;-77
2022/04/21 01:18:06;;;;;;;13.98;9.13;;;;;;;7.00;83.40;101387.00;1044438;28;20295;-77
2022/04/21 01:18:38;;;;;;;12.20;10.90;;;;;;;7.04;83.23;101385.66;1044033;28;20406;-77
2022/04/21 01:19:09;;;;;;;13.63;8.75;;;;;;;7.03;83.21;101384.00;1040090;28;20366;-77
2022/04/21 01:19:41;;;;;;;10.65;9.50;;;;;;;7.07;83.13;101387.09;1040163;28;20296;-76
2022/04/21 01:20:15;;;;;;;12.20;9.05;;;;;;;7.15;82.81;101380.94;1040530;28;20800;-77
2022/04/21 01:20:47;;;;;;;14.10;8.95;;;;;;;7.06;83.26;101381.00;1040930;28;20296;-77
2022/04/21 01:21:18;;;;;;;13.55;9.00;;;;;;;7.09;82.91;101383.28;1040023;28;20291;-77
2022/04/21 01:21:50;;;;;;;10.98;8.85;;;;;;;7.05;82.98;101389.94;1035839;28;20301;-77
2022/04/21 01:22:22;;;;;;;11.60;9.13;;;;;;;7.01;83.16;101391.31;1033616;28;20395;-77
2022/04/21 01:22:54;;;;;;;15.18;9.95;;;;;;;7.04;82.85;101392.78;1036458;28;20342;-77
2022/04/21 01:23:26;;;;;;;9.90;9.00;;;;;;;7.01;83.27;101383.34;1040616;28;20343;-77
2022/04/21 01:23:58;;;;;;;13.40;9.45;;;;;;;7.00;82.99;101387.00;1043974;28;20891;-77
2022/04/21 01:24:29;;;;;;;11.90;10.07;;;;;;;7.00;82.92;101394.97;1044034;28;20303;-77
2022/04/21 01:25:02;;;;;;;11.23;9.88;;;;;;;7.03;82.77;101384.00;1040056;28;20681;-77
2022/04/21 01:25:39;;;;;;;11.85;10.10;;;;;;;7.01;82.80;101380.72;1035918;28;20379;-77
2022/04/21 01:26:11;;;;;;;10.98;9.68;;;;;;;6.98;82.61;101381.06;1037128;28;20350;-77
2022/04/21 01:26:43;;;;;;;11.75;9.15;;;;;;;6.99;82.96;101382.72;1041460;28;20288;-77
2022/04/21 01:27:15;;;;;;;11.27;9.30;;;;;;;6.99;82.78;101390.66;1041510;28;20773;-77
2022/04/21 01:27:48;;;;;;;17.55;10.05;;;;;;;6.96;82.94;101377.78;1035773;28;20391;-77
2022/04/21 01:28:20;;;;;;;10.50;9.43;;;;;;;6.82;83.02;101386.50;1035935;28;20372;-77
2022/04/21 01:28:52;;;;;;;12.02;9.20;;;;;;;6.83;83.03;101382.84;1032724;28;20337;-77
2022/04/21 01:29:24;;;;;;;12.80;9.00;;;;;;;6.70;83.08;101377.34;1035123;28;20377;-77
2022/04/21 01:29:56;;;;;;;15.10;10.40;;;;;;;6.65;83.48;101385.81;1036293;28;20439;-77
2022/04/21 01:30:28;;;;;;;10.18;9.18;;;;;;;6.72;83.66;101385.94;1036277;28;20308;-77
2022/04/21 01:31:01;;;;;;;12.93;8.90;;;;;;;6.68;83.76;101387.28;1038722;28;20297;-77
2022/04/21 01:31:33;;;;;;;10.40;8.98;;;;;;;6.28;84.32;101393.66;1044121;28;20662;-77
2022/04/21 01:32:05;;;;;;;13.50;9.18;;;;;;;6.35;84.68;101379.56;1044096;28;20303;-77
2022/04/21 01:32:37;;;;;;;11.98;9.73;;;;;;;6.45;84.46;101390.75;1044243;28;20295;-77
2022/04/21 01:33:09;;;;;;;13.95;9.00;;;;;;;6.50;84.78;101380.44;1037715;28;20289;-77
2022/04/21 01:33:41;;;;;;;11.02;9.13;;;;;;;6.56;84.74;101380.75;1036759;28;20296;-77
2022/04/21 01:34:13;;;;;;;13.20;10.15;;;;;;;6.69;84.53;101386.28;1039998;28;20770;-77
2022/04/21 01:34:44;;;;;;;11.75;9.30;;;;;;;6.57;84.55;101377.09;1040669;28;20307;-77
2022/04/21 01:35:16;;;;;;;11.35;9.10;;;;;;;6.50;84.31;101383.09;1044282;28;20283;-77
2022/04/21 01:35:48;;;;;;;8.82;7.93;;;;;;;6.31;84.39;101380.94;1044032;28;20291;-77
2022/04/21 01:36:20;;;;;;;11.32;10.13;;;;;;;6.27;84.89;101382.25;1044247;28;20284;-77
2022/04/21 01:41:09;;;;;;;11.02;7.72;;;;;;;6.01;85.50;101384.38;1042304;28;20382;-77
2022/04/21 01:41:41;;;;;;;11.85;8.35;;;;;;;5.77;85.93;101378.19;1042210;28;20373;-77
2022/04/21 01:42:16;;;;;;;8.20;7.40;;;;;;;5.87;86.53;101386.72;1044404;28;20386;-77
2022/04/21 01:42:48;;;;;;;10.77;7.97;;;;;;;5.85;86.29;101378.16;1044112;28;20390;-77
2022/04/21 01:43:20;;;;;;;11.23;7.45;;;;;;;6.04;86.56;101386.69;1039957;28;20311;-78
2022/04/21 01:43:52;;;;;;;18.30;8.70;;;;;;;6.04;86.74;101376.13;1035871;28;20288;-77
2022/04/21 01:44:23;;;;;;;43.08;11.27;;;;;;;6.16;86.82;101380.84;1039899;28;20295;-77
2022/04/21 01:44:55;;;;;;;103.07;15.60;;;;;;;6.23;86.39;101380.13;1044101;28;20303;-77
2022/04/21 01:45:27;;;;;;;143.40;16.15;;;;;;;6.26;86.48;101380.59;1044498;28;20645;-77
2022/04/21 01:45:59;;;;;;;122.93;17.00;;;;;;;6.22;86.58;101373.19;1044331;28;20301;-77
2022/04/21 01:46:31;;;;;;;42.10;11.32;;;;;;;6.20;86.75;101381.31;1044407;28;20279;-78
2022/04/21 01:47:03;;;;;;;25.35;10.23;;;;;;;6.27;86.49;101376.13;1044470;28;20299;-77
2022/04/21 01:47:35;;;;;;;43.30;10.70;;;;;;;6.22;86.30;101379.31;1044273;28;20768;-78
2022/04/21 01:48:07;;;;;;;41.78;10.02;;;;;;;6.22;86.40;101379.31;1043895;28;20307;-78
2022/04/21 01:48:40;;;;;;;28.40;10.70;;;;;;;6.15;86.40;101370.44;1039901;28;20292;-78
2022/04/21 01:49:11;;;;;;;46.53;11.00;;;;;;;6.20;86.39;101378.66;1035787;28;20301;-78
2022/04/21 01:49:43;;;;;;;47.10;12.45;;;;;;;6.26;86.35;101375.31;1032115;28;20304;-77
2022/04/21 01:50:15;;;;;;;35.58;11.25;;;;;;;6.07;86.19;101376.59;1032507;28;20764;-77
2022/04/21 01:50:46;;;;;;;29.75;8.73;;;;;;;5.94;86.58;101368.38;1036121;28;20292;-77
2022/04/21 01:51:18;;;;;;;33.50;9.82;;;;;;;5.96;86.87;101373.50;1036193;28;20685;-78
2022/04/21 01:51:49;;;;;;;17.90;9.52;;;;;;;6.02;87.16;101368.34;1040326;28;20371;-77
2022/04/21 01:52:21;;;;;;;28.65;10.27;;;;;;;6.05;87.11;101364.56;1044069;28;20287;-77
2022/04/21 01:52:53;;;;;;;34.45;9.40;;;;;;;6.06;87.29;101366.19;1044056;28;20907;-78
2022/04/21 01:53:25;;;;;;;14.98;9.80;;;;;;;5.72;87.61;101367.28;1043893;28;20716;-77
2022/04/21 01:53:56;;;;;;;24.25;8.70;;;;;;;5.81;87.64;101363.63;1044220;28;20366;-77
2022/04/21 01:54:28;;;;;;;16.98;7.70;;;;;;;5.93;87.60;101368.56;1043921;28;20946;-77
2022/04/21 01:55:00;;;;;;;23.13;9.35;;;;;;;6.07;87.53;101365.19;1040529;28;20299;-78
2022/04/21 01:55:31;;;;;;;25.75;8.60;;;;;;;6.06;87.76;101363.56;1044044;28;20426;-77
2022/04/21 01:56:04;;;;;;;18.92;8.85;;;;;;;5.95;87.64;101367.38;1044022;28;20291;-77
2022/04/21 01:56:35;;;;;;;10.05;8.35;;;;;;;5.99;87.46;101373.16;1044046;28;20754;-78
2022/04/21 01:57:07;;;;;;;19.70;9.05;;;;;;;5.92;87.68;101361.63;1044441;28;20291;-77
2022/04/21 01:57:38;;;;;;;10.98;8.95;;;;;;;5.97;87.94;101364.56;1043795;28;20354;-77
2022/04/21 01:58:10;;;;;;;13.45;8.50;;;;;;;5.98;87.70;101360.94;1044046;28;20299;-77
2022/04/21 01:58:42;;;;;;;13.75;9.00;;;;;;;6.07;87.40;101358.09;1044119;28;20745;-77
2022/04/21 01:59:14;;;;;;;13.52;8.60;;;;;;;6.03;87.38;101366.53;1040427;28;20319;-77
2022/04/21 01:59:46;;;;;;;16.08;8.98;;;;;;;6.01;87.38;101361.41;1044010;28;20331;-77
2022/04/21 02:00:18;;;;;;;18.65;9.70;;;;;;;5.99;87.26;101367.88;1043993;28;20708;-77
2022/04/21 02:00:49;;;;;;;13.82;9.27;;;;;;;5.84;87.73;101360.66;1041591;28;20295;-77
2022/04/21 02:01:21;;;;;;;10.02;8.75;;;;;;;5.87;87.80;101370.06;1044114;28;20299;-77
2022/04/21 02:01:53;;;;;;;15.25;9.23;;;;;;;5.83;87.88;101356.34;1044041;28;20388;-77
2022/04/21 02:02:25;;;;;;;15.77;9.30;;;;;;;5.82;87.54;101357.34;1039990;28;20793;-77
2022/04/21 02:02:56;;;;;;;9.77;8.48;;;;;;;5.80;87.89;101359.34;1031632;28;20300;-77
2022/04/21 02:03:30;;;;;;;13.70;8.90;;;;;;;5.75;88.18;101359.03;1032461;28;20301;-77
2022/04/21 02:04:02;;;;;;;11.00;9.40;;;;;;;5.81;88.12;101362.81;1032553;28;20748;-77
2022/04/21 02:04:34;;;;;;;13.52;8.52;;;;;;;5.92;88.18;101364.28;1034303;28;20780;-77
2022/04/21 02:05:06;;;;;;;10.27;9.25;;;;;;;5.95;87.88;101366.56;1041015;28;20754;-77
2022/04/21 02:05:38;;;;;;;11.13;8.82;;;;;;;6.03;88.02;101359.44;1044150;28;20288;-77
2022/04/21 02:06:13;;;;;;;12.32;9.57;;;;;;;6.10;87.74;101362.19;1044260;28;20310;-77
2022/04/21 02:06:44;;;;;;;12.65;9.05;;;;;;;6.14;87.62;101366.16;1044391;28;20295;-78
2022/04/21 02:07:16;;;;;;;16.67;8.68;;;;;;;6.15;87.30;101368.63;1044316;28;20306;-77
2022/04/21 02:07:48;;;;;;;13.13;9.85;;;;;;;6.11;87.25;101367.31;1043951;28;20889;-77
2022/04/21 02:08:19;;;;;;;10.27;9.27;;;;;;;6.08;87.38;101361.56;1039960;28;20334;-77
2022/04/21 02:08:51;;;;;;;14.15;8.75;;;;;;;6.11;87.22;101362.03;1039944;28;20300;-77
2022/04/21 02:09:23;;;;;;;13.02;8.77;;;;;;;6.14;87.50;101355.56;1040021;28;20295;-77
2022/04/21 02:09:55;;;;;;;10.23;8.98;;;;;;;6.12;87.00;101361.03;1040274;28;20338;-77
2022/04/21 02:10:27;;;;;;;15.23;9.25;;;;;;;6.12;86.88;101354.91;1043741;28;20306;-77
2022/04/21 02:10:58;;;;;;;9.88;8.88;;;;;;;6.03;87.18;101353.31;1044320;28;20768;-77
2022/04/21 02:11:30;;;;;;;10.65;9.05;;;;;;;6.04;87.12;101357.63;1043160;28;20626;-77
2022/04/21 02:12:02;;;;;;;9.60;8.52;;;;;;;5.98;87.42;101356.47;1044337;28;20753;-77
2022/04/21 02:12:34;;;;;;;12.02;10.07;;;;;;;5.84;87.37;101359.81;1044408;28;20673;-77
2022/04/21 02:13:06;;;;;;;10.90;9.27;;;;;;;5.84;87.62;101360.66;1044045;28;20366;-77
2022/04/21 02:13:37;;;;;;;13.30;9.82;;;;;;;5.85;87.67;101356.19;1044045;28;20667;-77
2022/04/21 02:14:09;;;;;;;16.08;9.00;;;;;;;5.76;87.46;101357.22;1039812;28;20347;-77
2022/04/21 02:14:41;;;;;;;11.02;10.02;;;;;;;5.74;87.90;101354.72;1040443;28;20294;-77
2022/04/21 02:15:13;;;;;;;13.30;9.38;;;;;;;5.71;88.11;101362.19;1043986;28;20792;-77
2022/04/21 02:15:45;;;;;;;13.45;9.63;;;;;;;5.53;88.46;101357.97;1044018;28;20291;-77
2022/04/21 02:16:17;;;;;;;11.52;9.60;;;;;;;5.43;88.17;101361.78;1043922;28;20295;-77
2022/04/21 02:16:48;;;;;;;13.05;8.85;;;;;;;5.47;88.82;101360.44;1044114;28;20299;-77
2022/04/21 02:17:20;;;;;;;11.43;8.75;;;;;;;5.42;88.85;101355.66;1044022;28;20352;-77
2022/04/21 02:17:52;;;;;;;10.60;9.60;;;;;;;5.58;89.17;101358.28;1044517;28;20280;-77
2022/04/21 02:18:23;;;;;;;10.15;9.15;;;;;;;5.40;89.72;101357.66;1041626;28;20382;-76
2022/04/21 02:18:55;;;;;;;9.82;8.82;;;;;;;5.41;89.60;101353.19;1043525;28;20431;-76
2022/04/21 02:19:28;;;;;;;12.15;9.27;;;;;;;5.44;89.26;101358.13;1043823;28;20300;-75
2022/04/21 02:20:02;;;;;;;10.68;9.18;;;;;;;5.26;89.79;101361.84;1043473;28;20299;-75
2022/04/21 02:20:34;;;;;;;10.40;9.30;;;;;;;5.20;89.53;101359.88;1043564;28;20951;-75
2022/04/21 02:21:06;;;;;;;10.52;9.43;;;;;;;5.41;89.18;101358.47;1043331;28;20295;-75
2022/04/21 02:21:37;;;;;;;16.25;8.35;;;;;;;5.45;89.73;101359.78;1043178;28;20299;-75
2022/04/21 02:22:09;;;;;;;10.55;9.48;;;;;;;5.24;89.99;101360.34;1043482;28;20292;-75
2022/04/21 02:22:41;;;;;;;9.43;8.45;;;;;;;5.14;90.01;101359.69;1043139;28;20409;-75
2022/04/21 02:23:13;;;;;;;11.00;9.23;;;;;;;5.03;89.89;101355.59;1039362;28;20534;-75
2022/04/21 02:23:44;;;;;;;9.85;8.63;;;;;;;5.06;90.38;101357.91;1031391;28;20355;-75
2022/04/21 02:24:16;;;;;;;13.65;8.82;;;;;;;5.25;90.44;101362.84;1035097;28;20307;-75
2022/04/21 02:24:48;;;;;;;9.43;8.52;;;;;;;5.39;90.32;101356.00;1031602;28;20321;-75
2022/04/21 02:25:19;;;;;;;13.05;9.02;;;;;;;5.37;89.98;101362.47;1037002;28;20358;-75
2022/04/21 02:25:51;;;;;;;14.98;9.45;;;;;;;5.02;89.76;101347.84;1044079;28;20393;-75
2022/04/21 02:26:22;;;;;;;10.80;8.40;;;;;;;5.07;90.19;101349.00;1044725;28;20840;-77
2022/04/21 02:26:54;;;;;;;9.13;8.30;;;;;;;5.07;89.52;101356.91;1045212;28;20303;-78
2022/04/21 02:27:26;;;;;;;11.07;9.45;;;;;;;4.98;90.16;101355.28;1045233;28;20287;-77
2022/04/21 02:27:57;;;;;;;11.02;8.88;;;;;;;5.00;90.09;101350.66;1045157;28;20357;-77
2022/04/21 02:28:29;;;;;;;11.27;8.10;;;;;;;5.04;90.16;101345.88;1045218;28;20309;-77
2022/04/21 02:29:00;;;;;;;10.23;8.32;;;;;;;5.03;90.30;101350.31;1045197;28;20295;-77
2022/04/21 02:29:32;;;;;;;13.20;8.93;;;;;;;4.94;90.61;101344.25;1045249;28;20303;-77
2022/04/21 02:30:09;;;;;;;16.42;9.43;;;;;;;4.74;91.10;101350.03;1045181;28;20380;-77
2022/04/21 02:30:41;;;;;;;23.02;9.60;;;;;;;4.67;91.69;101343.75;1042956;28;20341;-77
2022/04/21 02:31:13;;;;;;;13.63;8.82;;;;;;;4.89;91.89;101358.91;1044763;28;20298;-77
2022/04/21 02:31:45;;;;;;;11.20;9.65;;;;;;;5.03;91.57;101345.03;1040569;28;20299;-77
2022/04/21 02:32:17;;;;;;;11.27;9.07;;;;;;;5.41;91.32;101347.91;1041520;28;20303;-77
2022/04/21 02:32:49;;;;;;;10.43;9.38;;;;;;;5.07;90.64;101341.06;1040753;28;20296;-77
2022/04/21 02:33:21;;;;;;;10.15;8.93;;;;;;;5.14;90.86;101347.31;1038425;28;20300;-77
2022/04/21 02:33:52;;;;;;;10.93;9.43;;;;;;;5.19;90.42;101350.28;1044889;28;20291;-77
2022/04/21 02:34:24;;;;;;;9.55;8.60;;;;;;;5.31;90.79;101337.56;1044933;28;20306;-77
2022/04/21 02:34:56;;;;;;;13.70;9.10;;;;;;;5.36;90.21;101350.25;1044927;28;20327;-77
2022/04/21 02:35:27;;;;;;;9.88;8.88;;;;;;;5.42;90.42;101342.47;1045229;28;20634;-77
2022/04/21 02:35:59;;;;;;;10.68;9.57;;;;;;;5.40;90.11;101341.00;1044868;28;20390;-77
2022/04/21 02:36:30;;;;;;;8.90;7.63;;;;;;;5.31;89.63;101347.28;1044835;28;20294;-77
2022/04/21 02:37:02;;;;;;;8.93;8.13;;;;;;;5.39;89.40;101340.16;1044843;28;20743;-77
2022/04/21 02:37:38;;;;;;;8.85;8.02;;;;;;;5.26;89.72;101346.00;1041328;28;20281;-77